Laghouat, L`Mekrareg Airport (DAUL)

NameL`Mekrareg Airport
CityLaghouat
CountryAlgeria
ICAODAUL
IATALOO
Altitude765 m
CoordinatesGoogle Map
Live Air TrafficLiveATC.net
METARDAUL 181800Z 21006KT 9999 SCT033 SCT080 28/16 Q1020
2018-09-18 18:00:00 Wind: South-Southwest (210°) 3.09 m/s - Visibility: > 10000 m - Temperature: 28 °C - Dew point: 16 °C - Humidity: 48.1% - Pressure: 1020 hPa
Statistics

The table below shows the detailed information of all flights to/from Laghouat, L`Mekrareg Airport (DAUL).

Ident Aircraft Coming fromFrom Going toTo Owner nameOwnerSpotted durationDurationDate
7T-VUV - AT76 - Air Algerie DAH6070 ATR ATR-72-600 AT76 Algier, Algeria (DAAG) DAAG
16 km
Laghouat, Algeria (DAUL) DAUL
326 km
Air Algerie Air Algerie - - Tue, 13 Nov 2018 12:10:55 +0000 13/11/2018 12:10 pm
7T-VUV - AT76 - Air Algerie DAH6070 ATR ATR-72-600 AT76 Algier, Algeria (DAAG) DAAG
25 km
Laghouat, Algeria (DAUL) DAUL
302 km
Air Algerie Air Algerie - - Tue, 13 Nov 2018 09:29:26 +0000 13/11/2018 9:29 am
7T-VUV - AT76 - Air Algerie DAH6070 ATR ATR-72-600 AT76 Algier, Algeria (DAAG) DAAG
18 km
Laghouat, Algeria (DAUL) DAUL
309 km
Air Algerie Air Algerie - - Sat, 10 Nov 2018 10:58:54 +0000 10/11/2018 10:58 am
7T-VUW - AT76 - Air Algerie DAH6070 ATR ATR-72-600 AT76 Algier, Algeria (DAAG) DAAG
32 km
Laghouat, Algeria (DAUL) DAUL
295 km
Air Algerie Air Algerie 00:07:15 00:07:15 Thu, 08 Nov 2018 11:05:39 +0000 8/11/2018 11:05 am
Thu, 08 Nov 2018 11:12:54 +0000 8/11/2018 11:12 am